createdAt,value
2022-08-26T00:02:07.247Z,19.51
2022-08-26T00:04:35.425Z,19.47
2022-08-26T00:07:03.573Z,19.49
2022-08-26T00:09:39.099Z,19.55
2022-08-26T00:12:09.378Z,19.57
2022-08-26T00:14:42.427Z,19.57
2022-08-26T00:17:10.607Z,19.54
2022-08-26T00:19:38.633Z,19.53
2022-08-26T00:22:07.006Z,19.52
2022-08-26T00:24:35.051Z,19.50
2022-08-26T00:27:03.097Z,19.45
2022-08-26T00:29:34.911Z,19.48
2022-08-26T00:32:07.830Z,19.49
2022-08-26T00:34:36.238Z,19.49
2022-08-26T00:37:04.534Z,19.49
2022-08-26T00:39:38.000Z,19.47
2022-08-26T00:42:06.314Z,19.47
2022-08-26T00:44:34.413Z,19.46
2022-08-26T00:47:04.076Z,19.44
2022-08-26T00:49:37.081Z,19.43
2022-08-26T00:52:06.250Z,19.44
2022-08-26T00:54:40.472Z,19.39
2022-08-26T00:57:16.019Z,19.33
2022-08-26T00:59:45.883Z,19.30
2022-08-26T01:02:20.176Z,19.26
2022-08-26T01:04:54.251Z,19.24
2022-08-26T01:07:25.773Z,19.20
2022-08-26T01:09:53.800Z,19.19
2022-08-26T01:12:21.952Z,19.16
2022-08-26T01:14:50.296Z,19.09
2022-08-26T01:17:18.428Z,19.05
2022-08-26T01:19:48.066Z,19.04
2022-08-26T01:22:18.798Z,19.02
2022-08-26T01:24:50.472Z,19.06
2022-08-26T01:27:20.597Z,19.07
2022-08-26T01:29:49.282Z,19.06
2022-08-26T01:32:19.459Z,19.04
2022-08-26T01:34:48.416Z,19.04
2022-08-26T01:37:19.621Z,19.05
2022-08-26T01:39:51.261Z,19.04
2022-08-26T01:42:20.716Z,19.03
2022-08-26T01:44:51.042Z,19.01
2022-08-26T01:47:19.682Z,19.07
2022-08-26T01:49:49.385Z,19.14
2022-08-26T01:52:22.003Z,19.19
2022-08-26T01:54:51.504Z,19.21
2022-08-26T01:57:19.970Z,19.23
2022-08-26T01:59:48.369Z,19.29
2022-08-26T02:02:16.442Z,19.35
2022-08-26T02:04:48.695Z,19.42
2022-08-26T02:07:18.613Z,19.49
2022-08-26T02:09:51.031Z,19.52
2022-08-26T02:12:19.995Z,19.55
2022-08-26T02:14:51.897Z,19.50
2022-08-26T02:17:21.189Z,19.61
2022-08-26T02:19:50.727Z,19.64
2022-08-26T02:22:20.238Z,19.65
2022-08-26T02:24:50.015Z,19.66
2022-08-26T02:27:22.406Z,19.69
2022-08-26T02:29:52.938Z,19.71
2022-08-26T02:32:21.144Z,19.74
2022-08-26T02:34:49.145Z,19.79
2022-08-26T02:37:17.672Z,19.87
2022-08-26T02:39:45.932Z,19.97
2022-08-26T02:42:16.164Z,20.02
2022-08-26T02:44:45.560Z,20.07
2022-08-26T02:47:14.793Z,20.13
2022-08-26T02:49:44.243Z,20.12
2022-08-26T02:52:13.247Z,20.12
2022-08-26T02:54:42.087Z,20.15
2022-08-26T02:57:10.277Z,20.18
2022-08-26T02:59:39.272Z,20.19
2022-08-26T03:02:10.615Z,20.23
2022-08-26T03:04:39.117Z,20.24
2022-08-26T03:07:07.561Z,20.27
2022-08-26T03:09:36.598Z,20.29
2022-08-26T03:12:06.065Z,20.25
2022-08-26T03:14:35.774Z,20.24
2022-08-26T03:17:03.972Z,20.27
2022-08-26T03:19:33.339Z,20.32
2022-08-26T03:22:07.320Z,20.37
2022-08-26T03:24:35.721Z,20.42
2022-08-26T03:27:07.368Z,20.46
2022-08-26T03:29:52.757Z,20.48
2022-08-26T03:32:21.814Z,20.47
2022-08-26T03:34:51.207Z,20.46
2022-08-26T03:37:19.544Z,20.45
2022-08-26T03:39:48.805Z,20.41
2022-08-26T03:42:17.683Z,20.38
2022-08-26T03:44:49.605Z,20.35
2022-08-26T03:47:17.761Z,20.32
2022-08-26T03:49:45.940Z,20.28
2022-08-26T03:52:18.073Z,20.24
2022-08-26T03:54:46.049Z,20.20
2022-08-26T03:57:15.240Z,20.15
2022-08-26T03:59:45.368Z,20.13
2022-08-26T04:02:13.369Z,20.13
2022-08-26T04:04:41.801Z,20.17
2022-08-26T04:07:09.980Z,20.20
2022-08-26T04:09:39.787Z,20.22
2022-08-26T04:12:08.480Z,20.21
2022-08-26T04:14:37.751Z,20.20
2022-08-26T04:17:08.749Z,20.20
2022-08-26T04:19:36.765Z,20.16
2022-08-26T04:22:04.826Z,20.14
2022-08-26T04:24:32.971Z,20.13
2022-08-26T04:27:03.524Z,20.11
2022-08-26T04:29:31.576Z,20.08
2022-08-26T04:32:00.988Z,20.09
2022-08-26T04:34:29.698Z,20.09
2022-08-26T04:36:57.958Z,20.10
2022-08-26T04:39:27.660Z,20.10
2022-08-26T04:41:55.892Z,20.12
2022-08-26T04:44:28.511Z,20.13
2022-08-26T04:46:56.682Z,20.13
2022-08-26T04:49:26.086Z,20.14
2022-08-26T04:51:55.563Z,20.16
2022-08-26T04:54:25.181Z,20.16
2022-08-26T04:56:53.268Z,20.18
2022-08-26T04:59:21.307Z,20.20
2022-08-26T05:01:52.886Z,20.21
2022-08-26T05:04:21.419Z,20.20
2022-08-26T05:06:50.295Z,20.20
2022-08-26T05:09:18.558Z,20.21
2022-08-26T05:11:51.792Z,20.24
2022-08-26T05:14:20.492Z,20.25
2022-08-26T05:16:49.980Z,20.18
2022-08-26T05:19:18.842Z,20.17
2022-08-26T05:21:47.811Z,20.16
2022-08-26T05:24:16.615Z,20.25
2022-08-26T05:26:45.338Z,20.26
2022-08-26T05:29:14.076Z,20.31
2022-08-26T05:31:43.037Z,20.34
2022-08-26T05:34:12.606Z,20.38
2022-08-26T05:36:41.346Z,20.43
2022-08-26T05:39:10.397Z,20.49
2022-08-26T05:41:41.092Z,20.52
2022-08-26T05:44:10.383Z,20.52
2022-08-26T05:46:38.755Z,20.55
2022-08-26T05:49:12.207Z,20.57
2022-08-26T05:51:46.273Z,20.55
2022-08-26T05:54:21.687Z,20.56
2022-08-26T05:56:51.199Z,20.60
2022-08-26T05:59:21.353Z,20.62
2022-08-26T06:01:53.932Z,20.60
2022-08-26T06:04:22.366Z,20.55
2022-08-26T06:06:54.298Z,20.52
2022-08-26T06:09:23.330Z,20.48
2022-08-26T06:11:51.795Z,20.48
2022-08-26T06:14:21.649Z,20.47
2022-08-26T06:16:49.995Z,20.49
2022-08-26T06:19:18.280Z,20.50
2022-08-26T06:21:47.384Z,20.48
2022-08-26T06:24:38.480Z,20.47
2022-08-26T06:27:09.944Z,20.49
2022-08-26T06:29:39.732Z,20.47
2022-08-26T06:32:08.763Z,20.48
2022-08-26T06:34:36.970Z,20.45
2022-08-26T06:37:06.280Z,20.39
2022-08-26T06:39:41.035Z,20.35
2022-08-26T06:42:10.808Z,20.28
2022-08-26T06:44:40.984Z,20.24
2022-08-26T06:47:09.203Z,20.24
2022-08-26T06:49:37.380Z,20.20
2022-08-26T06:52:05.461Z,20.16
2022-08-26T06:54:33.465Z,20.17
2022-08-26T06:57:03.242Z,20.20
2022-08-26T06:59:33.152Z,20.24
2022-08-26T07:02:04.025Z,20.26
2022-08-26T07:04:32.983Z,20.31
2022-08-26T07:07:01.996Z,20.31
2022-08-26T07:09:33.079Z,20.33
2022-08-26T07:12:04.493Z,20.32
2022-08-26T07:14:32.838Z,20.33
2022-08-26T07:17:07.332Z,20.33
2022-08-26T07:19:38.136Z,20.38
2022-08-26T07:22:06.556Z,20.42
2022-08-26T07:24:38.263Z,20.48
2022-08-26T07:27:10.045Z,20.51
2022-08-26T07:29:39.412Z,20.56
2022-08-26T07:32:07.708Z,20.61
2022-08-26T07:34:35.739Z,20.69
2022-08-26T07:37:04.834Z,20.80
2022-08-26T07:39:37.300Z,20.90
2022-08-26T07:42:08.279Z,20.98
2022-08-26T07:44:36.826Z,21.00
2022-08-26T07:47:10.415Z,21.05
2022-08-26T07:49:53.603Z,21.09
2022-08-26T07:52:26.222Z,21.13
2022-08-26T07:54:54.975Z,21.13
2022-08-26T07:57:24.820Z,21.13
2022-08-26T07:59:54.994Z,21.17
2022-08-26T08:02:23.693Z,21.18
2022-08-26T08:04:54.607Z,21.20
2022-08-26T08:07:38.296Z,21.24
2022-08-26T08:10:12.646Z,21.24
2022-08-26T08:12:42.392Z,21.24
2022-08-26T08:15:11.536Z,21.27
2022-08-26T08:17:39.641Z,21.31
2022-08-26T08:20:09.260Z,21.36
2022-08-26T08:22:37.499Z,21.45
2022-08-26T08:25:08.218Z,21.50
2022-08-26T08:27:39.856Z,21.57
2022-08-26T08:30:10.853Z,21.62
2022-08-26T08:32:43.600Z,21.70
2022-08-26T08:35:15.324Z,21.81
2022-08-26T08:37:44.796Z,21.94
2022-08-26T08:40:18.434Z,22.05
2022-08-26T08:42:53.814Z,22.16
2022-08-26T08:45:27.228Z,22.25
2022-08-26T08:47:57.543Z,22.34
2022-08-26T08:50:27.513Z,22.45
2022-08-26T08:53:00.601Z,22.54
2022-08-26T08:55:34.498Z,22.65
2022-08-26T08:58:04.837Z,22.76
2022-08-26T09:00:39.759Z,22.89
2022-08-26T09:03:11.744Z,23.00
2022-08-26T09:05:44.406Z,23.07
2022-08-26T09:08:19.836Z,23.11
2022-08-26T09:10:54.054Z,23.17
2022-08-26T09:13:26.253Z,23.23
2022-08-26T09:16:03.992Z,23.31
2022-08-26T09:18:46.282Z,23.43
2022-08-26T09:21:15.473Z,23.45
2022-08-26T09:23:49.328Z,23.48
2022-08-26T09:26:19.540Z,23.57
2022-08-26T09:28:48.911Z,23.68
2022-08-26T09:31:21.455Z,23.83
2022-08-26T09:33:53.364Z,24.02
2022-08-26T09:36:26.263Z,24.27
2022-08-26T09:38:55.115Z,24.55
2022-08-26T09:41:28.400Z,24.83
2022-08-26T09:44:09.727Z,25.11
2022-08-26T09:46:52.655Z,25.24
2022-08-26T09:49:26.723Z,25.46
2022-08-26T09:52:19.389Z,25.66
2022-08-26T09:55:01.180Z,25.78
2022-08-26T09:57:32.476Z,25.95
2022-08-26T10:00:01.851Z,25.96
2022-08-26T10:02:47.804Z,25.91
2022-08-26T10:05:19.399Z,26.03
2022-08-26T10:07:49.529Z,26.19
2022-08-26T10:10:22.299Z,26.28
2022-08-26T10:12:57.782Z,26.48
2022-08-26T10:15:26.453Z,26.49
2022-08-26T10:18:01.621Z,26.34
2022-08-26T10:20:32.460Z,26.04
2022-08-26T10:23:05.336Z,25.85
2022-08-26T10:25:34.695Z,25.82
2022-08-26T10:28:08.150Z,25.77
2022-08-26T10:30:39.368Z,25.66
2022-08-26T10:33:15.420Z,25.55
2022-08-26T10:35:52.148Z,25.55
2022-08-26T10:38:28.806Z,25.64
2022-08-26T10:41:00.557Z,25.70
2022-08-26T10:43:29.665Z,25.80
2022-08-26T10:46:00.709Z,25.86
2022-08-26T10:48:35.420Z,25.78
2022-08-26T10:51:04.397Z,25.71
2022-08-26T10:53:39.946Z,25.53
2022-08-26T10:56:15.685Z,25.35
2022-08-26T10:58:52.875Z,25.21
2022-08-26T11:01:40.725Z,25.16
2022-08-26T11:04:23.017Z,25.06
2022-08-26T11:06:53.815Z,24.97
2022-08-26T11:09:43.802Z,24.88
2022-08-26T11:12:32.303Z,24.93
2022-08-26T11:15:01.500Z,24.96
2022-08-26T11:17:56.772Z,25.07
2022-08-26T11:20:37.444Z,25.16
2022-08-26T11:23:38.564Z,25.22
2022-08-26T11:26:32.804Z,25.21
2022-08-26T11:29:03.313Z,25.43
2022-08-26T11:31:54.503Z,25.55
2022-08-26T11:34:51.896Z,25.68
2022-08-26T11:37:21.631Z,25.90
2022-08-26T11:39:55.448Z,26.01
2022-08-26T11:42:31.144Z,25.99
2022-08-26T11:45:05.446Z,25.86
2022-08-26T11:47:36.541Z,25.71
2022-08-26T11:50:09.963Z,25.75
2022-08-26T11:52:39.761Z,25.80
2022-08-26T11:55:09.426Z,25.77
2022-08-26T11:57:46.924Z,25.76
2022-08-26T12:00:21.167Z,25.73
2022-08-26T12:02:52.361Z,25.66
2022-08-26T12:05:25.314Z,25.72
2022-08-26T12:07:56.998Z,25.71
2022-08-26T12:10:29.373Z,25.80
2022-08-26T12:12:59.330Z,25.89
2022-08-26T12:15:27.886Z,25.94
2022-08-26T12:17:58.003Z,25.91
2022-08-26T12:20:54.314Z,26.01
2022-08-26T12:23:25.522Z,26.03
2022-08-26T12:26:08.085Z,26.05
2022-08-26T12:28:43.697Z,26.34
2022-08-26T12:31:11.851Z,26.72
2022-08-26T12:33:40.292Z,26.51
2022-08-26T12:36:08.648Z,26.81
2022-08-26T12:38:40.393Z,27.18
2022-08-26T12:41:08.776Z,27.61
2022-08-26T12:43:39.656Z,27.49
2022-08-26T12:46:08.836Z,27.52
2022-08-26T12:48:39.035Z,27.71
2022-08-26T12:51:25.931Z,27.74
2022-08-26T12:53:55.455Z,27.70
2022-08-26T12:56:28.369Z,27.43
2022-08-26T12:59:12.194Z,27.36
2022-08-26T13:01:44.114Z,27.48
2022-08-26T13:04:38.026Z,27.43
2022-08-26T13:07:19.069Z,27.55
2022-08-26T13:09:48.513Z,27.54
2022-08-26T13:12:24.998Z,27.29
2022-08-26T13:14:53.515Z,27.28
2022-08-26T13:17:21.999Z,27.08
2022-08-26T13:19:50.277Z,26.87
2022-08-26T13:22:20.148Z,26.82
2022-08-26T13:24:49.641Z,26.92
2022-08-26T13:27:20.513Z,27.17
2022-08-26T13:29:48.882Z,27.37
2022-08-26T13:32:17.980Z,27.48
2022-08-26T13:34:51.140Z,27.42
2022-08-26T13:37:34.434Z,27.29
2022-08-26T13:40:06.242Z,26.90
2022-08-26T13:42:34.758Z,26.70
2022-08-26T13:45:06.737Z,26.57
2022-08-26T13:47:34.894Z,26.60
2022-08-26T13:50:03.103Z,26.88
2022-08-26T13:52:31.318Z,27.25
2022-08-26T13:55:00.252Z,27.05
2022-08-26T13:57:30.594Z,27.08
2022-08-26T13:59:59.572Z,27.14
2022-08-26T14:02:28.996Z,27.45
2022-08-26T14:04:57.170Z,27.89
2022-08-26T14:07:28.547Z,27.97
2022-08-26T14:09:59.029Z,28.22
2022-08-26T14:12:27.254Z,28.57
2022-08-26T14:15:00.403Z,28.80
2022-08-26T14:17:28.678Z,28.88
2022-08-26T14:20:00.239Z,29.03
2022-08-26T14:22:28.665Z,29.42
2022-08-26T14:25:00.025Z,29.59
2022-08-26T14:27:28.173Z,29.72
2022-08-26T14:29:58.101Z,29.74
2022-08-26T14:32:28.232Z,29.91
2022-08-26T14:34:56.380Z,30.01
2022-08-26T14:37:24.641Z,30.14
2022-08-26T14:39:52.987Z,30.11
2022-08-26T14:42:23.924Z,29.94
2022-08-26T14:44:56.389Z,29.97
2022-08-26T14:47:26.089Z,29.81
2022-08-26T14:49:54.893Z,29.62
2022-08-26T14:52:23.024Z,29.71
2022-08-26T14:54:55.048Z,29.71
2022-08-26T14:57:23.728Z,29.83
2022-08-26T14:59:54.146Z,30.02
2022-08-26T15:02:33.410Z,29.77
2022-08-26T15:05:04.470Z,29.58
2022-08-26T15:07:34.235Z,29.48
2022-08-26T15:10:06.051Z,29.35
2022-08-26T15:12:34.299Z,29.24
2022-08-26T15:15:02.501Z,29.09
2022-08-26T15:17:35.738Z,28.98
2022-08-26T15:20:06.391Z,28.92
2022-08-26T15:22:34.716Z,28.94
2022-08-26T15:25:02.885Z,29.06
2022-08-26T15:27:31.379Z,29.46
2022-08-26T15:29:59.452Z,29.85
2022-08-26T15:32:29.924Z,30.25
2022-08-26T15:34:58.960Z,30.75
2022-08-26T15:37:30.277Z,31.24
2022-08-26T15:39:58.576Z,31.72
2022-08-26T15:42:27.124Z,32.04
2022-08-26T15:44:55.738Z,32.11
2022-08-26T15:47:23.993Z,32.22
2022-08-26T15:49:52.222Z,31.24
2022-08-26T15:52:23.024Z,30.24
2022-08-26T15:54:55.042Z,29.66
2022-08-26T15:57:23.527Z,29.82
2022-08-26T15:59:52.087Z,29.74
2022-08-26T16:02:20.225Z,29.92
2022-08-26T16:04:50.758Z,29.93
2022-08-26T16:07:26.517Z,29.31
2022-08-26T16:09:58.195Z,29.03
2022-08-26T16:12:30.141Z,28.63
2022-08-26T16:15:01.074Z,28.38
2022-08-26T16:17:31.741Z,28.48
2022-08-26T16:20:00.026Z,28.52
2022-08-26T16:22:30.762Z,28.63
2022-08-26T16:25:02.807Z,28.52
2022-08-26T16:27:32.430Z,28.67
2022-08-26T16:30:00.518Z,28.90
2022-08-26T16:32:31.391Z,28.99
2022-08-26T16:34:59.861Z,29.23
2022-08-26T16:37:28.028Z,29.15
2022-08-26T16:39:56.253Z,29.09
2022-08-26T16:42:25.705Z,28.96
2022-08-26T16:44:53.754Z,28.81
2022-08-26T16:47:23.484Z,28.25
2022-08-26T16:49:54.193Z,28.06
2022-08-26T16:52:24.855Z,28.04
2022-08-26T16:54:58.423Z,28.15
2022-08-26T16:57:27.835Z,28.06
2022-08-26T16:59:55.953Z,28.09
2022-08-26T17:02:25.168Z,27.96
2022-08-26T17:04:53.496Z,28.02
2022-08-26T17:07:21.520Z,28.06
2022-08-26T17:09:49.588Z,28.15
2022-08-26T17:12:19.795Z,28.08
2022-08-26T17:14:49.404Z,28.27
2022-08-26T17:17:18.088Z,28.41
2022-08-26T17:19:48.743Z,28.51
2022-08-26T17:22:17.006Z,28.62
2022-08-26T17:24:45.085Z,28.69
2022-08-26T17:27:13.154Z,28.82
2022-08-26T17:29:41.262Z,28.70
2022-08-26T17:32:10.774Z,28.38
2022-08-26T17:34:38.819Z,28.37
2022-08-26T17:37:06.868Z,28.07
2022-08-26T17:39:34.948Z,27.95
2022-08-26T17:42:04.048Z,27.95
2022-08-26T17:44:32.201Z,27.92
2022-08-26T17:47:00.262Z,28.02
2022-08-26T17:49:29.734Z,28.17
2022-08-26T17:51:58.599Z,28.39
2022-08-26T17:54:27.625Z,28.34
2022-08-26T17:56:58.294Z,28.00
2022-08-26T17:59:30.751Z,27.53
2022-08-26T18:01:59.750Z,27.18
2022-08-26T18:04:29.662Z,27.03
2022-08-26T18:07:05.552Z,26.89
2022-08-26T18:09:33.617Z,26.69
2022-08-26T18:12:01.666Z,26.49
2022-08-26T18:14:30.332Z,26.30
2022-08-26T18:16:58.340Z,26.08
2022-08-26T18:19:26.482Z,25.77
2022-08-26T18:21:55.987Z,25.53
2022-08-26T18:24:24.533Z,25.39
2022-08-26T18:26:52.583Z,25.16
2022-08-26T18:29:21.719Z,24.67
2022-08-26T18:31:49.732Z,24.20
2022-08-26T18:34:17.780Z,23.82
2022-08-26T18:36:46.105Z,23.59
2022-08-26T18:39:15.616Z,23.49
2022-08-26T18:41:44.648Z,23.45
2022-08-26T18:44:13.762Z,23.42
2022-08-26T18:46:42.244Z,23.36
2022-08-26T18:49:11.334Z,23.33
2022-08-26T18:51:39.354Z,23.23
2022-08-26T18:54:07.669Z,23.15
2022-08-26T18:56:37.752Z,23.11
2022-08-26T18:59:13.599Z,23.09
2022-08-26T19:01:42.248Z,23.08
2022-08-26T19:04:15.598Z,23.05
2022-08-26T19:06:44.008Z,23.02
2022-08-26T19:09:14.731Z,22.99
2022-08-26T19:11:49.627Z,23.00
2022-08-26T19:14:18.502Z,23.00
2022-08-26T19:16:48.620Z,22.95
2022-08-26T19:19:16.994Z,22.93
2022-08-26T19:21:45.443Z,22.86
2022-08-26T19:24:17.599Z,22.86
2022-08-26T19:26:48.822Z,22.83
2022-08-26T19:31:51.328Z,22.73
2022-08-26T19:34:20.746Z,22.67
2022-08-26T19:36:49.506Z,22.62
2022-08-26T19:39:20.183Z,22.57
2022-08-26T19:41:49.654Z,22.54
2022-08-26T19:44:33.946Z,22.52
2022-08-26T19:47:03.564Z,22.55
2022-08-26T19:49:31.711Z,22.61
2022-08-26T19:51:59.769Z,22.60
2022-08-26T19:54:29.251Z,22.57
2022-08-26T19:56:58.653Z,22.56
2022-08-26T19:59:26.666Z,22.56
2022-08-26T20:02:00.736Z,22.60
2022-08-26T20:04:29.858Z,22.61
2022-08-26T20:06:58.725Z,22.63
2022-08-26T20:09:29.004Z,22.57
2022-08-26T20:12:00.779Z,22.55
2022-08-26T20:14:29.996Z,22.57
2022-08-26T20:16:58.072Z,22.59
2022-08-26T20:19:43.701Z,22.61
2022-08-26T20:22:11.844Z,22.63
2022-08-26T20:24:39.968Z,22.67
2022-08-26T20:27:09.685Z,22.70
2022-08-26T20:29:38.120Z,22.74
2022-08-26T20:32:06.641Z,22.83
2022-08-26T20:34:35.186Z,22.89
2022-08-26T20:37:05.613Z,22.90
2022-08-26T20:39:33.815Z,22.84
2022-08-26T20:42:02.269Z,22.86
2022-08-26T20:44:31.759Z,22.87
2022-08-26T20:46:59.972Z,22.84
2022-08-26T20:49:28.065Z,22.84
2022-08-26T20:51:56.487Z,22.83
2022-08-26T20:54:30.331Z,22.79
2022-08-26T20:56:58.925Z,22.76
2022-08-26T20:59:28.511Z,22.72
2022-08-26T21:02:00.032Z,22.70
2022-08-26T21:04:29.160Z,22.69
2022-08-26T21:06:57.276Z,22.67
2022-08-26T21:09:27.367Z,22.63
2022-08-26T21:11:57.010Z,22.58
2022-08-26T21:14:25.956Z,22.53
2022-08-26T21:16:54.309Z,22.50
2022-08-26T21:19:23.818Z,22.46
2022-08-26T21:21:51.869Z,22.41
2022-08-26T21:24:20.064Z,22.37
2022-08-26T21:26:48.316Z,22.32
2022-08-26T21:29:19.081Z,22.28
2022-08-26T21:31:47.239Z,22.25
2022-08-26T21:34:15.887Z,22.10
2022-08-26T21:36:45.433Z,22.15
2022-08-26T21:39:13.811Z,22.13
2022-08-26T21:41:41.946Z,22.09
2022-08-26T21:44:10.301Z,22.08
2022-08-26T21:46:38.351Z,22.09
2022-08-26T21:49:08.564Z,22.06
2022-08-26T21:51:37.930Z,22.03
2022-08-26T21:54:11.043Z,22.00
2022-08-26T21:56:41.441Z,21.99
2022-08-26T21:59:09.471Z,21.96
2022-08-26T22:01:37.749Z,21.92
2022-08-26T22:04:06.987Z,21.88
2022-08-26T22:06:40.699Z,21.86
2022-08-26T22:09:10.268Z,21.83
2022-08-26T22:11:38.256Z,21.84
2022-08-26T22:14:06.323Z,21.81
2022-08-26T22:16:34.348Z,21.77
2022-08-26T22:19:02.481Z,21.73
2022-08-26T22:21:30.608Z,21.71
2022-08-26T22:23:58.944Z,21.68
2022-08-26T22:26:30.710Z,21.64
2022-08-26T22:28:59.549Z,21.58
2022-08-26T22:31:38.001Z,21.54
2022-08-26T22:34:07.877Z,21.51
2022-08-26T22:36:36.054Z,21.47
2022-08-26T22:39:10.960Z,21.43
2022-08-26T22:41:43.255Z,21.38
2022-08-26T22:44:11.841Z,21.37
2022-08-26T22:46:39.983Z,21.33
2022-08-26T22:49:09.449Z,21.29
2022-08-26T22:51:37.532Z,21.28
2022-08-26T22:54:06.583Z,21.28
2022-08-26T22:56:34.884Z,21.23
2022-08-26T22:59:04.324Z,21.17
2022-08-26T23:01:32.587Z,21.15
2022-08-26T23:04:01.150Z,21.11
2022-08-26T23:06:29.223Z,21.08
2022-08-26T23:08:57.271Z,21.03
2022-08-26T23:11:27.719Z,20.98
2022-08-26T23:13:56.021Z,20.97
2022-08-26T23:16:25.493Z,20.99
2022-08-26T23:18:53.574Z,20.99
2022-08-26T23:21:23.684Z,20.95
2022-08-26T23:23:51.776Z,20.92
2022-08-26T23:26:19.905Z,20.89
2022-08-26T23:28:47.893Z,20.84
2022-08-26T23:31:15.977Z,20.83
2022-08-26T23:34:03.432Z,20.81
2022-08-26T23:36:31.542Z,20.83
2022-08-26T23:39:03.206Z,20.87
2022-08-26T23:41:31.243Z,20.87
2022-08-26T23:44:03.294Z,20.87
2022-08-26T23:46:31.805Z,20.87
2022-08-26T23:49:01.290Z,20.84
2022-08-26T23:51:46.571Z,20.81
2022-08-26T23:54:16.298Z,20.78
2022-08-26T23:56:44.410Z,20.74
2022-08-26T23:59:12.475Z,20.72
